Terminal Aerodrome Forecast
Issued by NWS

Home | Current Version | Previous Version | Text Only | Print | Product List | Glossary On
Versions: 1 2 3 4 5 6 7 8 9 10 11 12 13 14 15 16 17 18 19 20 21 22 23 24 25 26
000
FTUS42 KGSP 250600 CCA
TAFGMU
TAF COR
KGMU 250600Z 2506/2606 28004KT 6SM BR SCT002 BKN060
      TEMPO 2506/2510 3SM BR BKN002
     FM251000 28003KT 4SM BR FEW005 SCT060
     FM251300 30006KT P6SM FEW060 SCT120
     FM252000 31008KT P6SM SCT060
     FM260000 34003KT P6SM SCT060=

USA.gov is the U.S. government's official web portal to all federal, state and local government web resources and services.